Time;durP1;ratioP1;P1;durP2;ratioP2;P2;SDS_P1;SDS_P2;PMS_P1;PMS_P2;Temp;Humidity;BMP_temperature;BMP_pressure;BME280_temperature;BME280_humidity;BME280_pressure;Samples;Min_cycle;Max_cycle;Signal;HPM_P1;HPM_P2
2022/11/14 00:00:20;;;;;;;25.70;17.30;;;;;;;3.29;100.00;101568.63;4994813;28;20038;-79
2022/11/14 00:02:46;;;;;;;25.35;18.35;;;;;;;3.33;100.00;101588.09;4994811;28;20026;-78
2022/11/14 00:05:11;;;;;;;23.80;18.30;;;;;;;3.39;100.00;101593.06;4994787;28;20023;-78
2022/11/14 00:07:36;;;;;;;24.58;17.92;;;;;;;3.38;100.00;101587.13;4994590;28;20081;-78
2022/11/14 00:10:02;;;;;;;24.80;18.60;;;;;;;3.27;100.00;101563.53;4994448;28;20029;-78
2022/11/14 00:12:28;;;;;;;24.08;17.85;;;;;;;3.37;100.00;101580.34;4994427;28;20046;-78
2022/11/14 00:14:54;;;;;;;24.17;17.77;;;;;;;3.40;100.00;101579.44;4977016;28;20548;-77
2022/11/14 00:17:20;;;;;;;24.88;18.38;;;;;;;3.38;100.00;101566.72;4994508;28;20018;-77
2022/11/14 00:19:46;;;;;;;22.98;17.42;;;;;;;3.50;100.00;101567.31;4994394;28;20030;-77
2022/11/14 00:22:11;;;;;;;24.75;17.27;;;;;;;3.55;100.00;101579.13;4994150;28;20356;-77
2022/11/14 00:24:36;;;;;;;22.08;17.17;;;;;;;3.38;100.00;101545.44;4994247;28;20064;-78
2022/11/14 00:27:02;;;;;;;24.08;16.40;;;;;;;3.60;100.00;101569.63;4994328;28;20114;-77
2022/11/14 00:29:27;;;;;;;22.05;17.40;;;;;;;3.55;100.00;101557.84;4994182;28;20035;-78
2022/11/14 00:31:52;;;;;;;23.13;16.25;;;;;;;3.56;100.00;101560.38;4976852;28;20033;-79
2022/11/14 00:34:17;;;;;;;22.45;16.23;;;;;;;3.48;100.00;101552.03;4994455;28;20037;-77
2022/11/14 00:36:43;;;;;;;24.50;16.17;;;;;;;3.41;100.00;101537.72;4994202;28;20030;-78
2022/11/14 00:39:12;;;;;;;22.98;15.68;;;;;;;3.62;100.00;101567.88;4993749;28;20034;-78
2022/11/14 00:41:38;;;;;;;21.00;15.55;;;;;;;3.67;100.00;101566.06;4994325;28;20466;-79
2022/11/14 00:44:03;;;;;;;23.05;15.48;;;;;;;3.66;100.00;101561.84;4993996;28;20029;-77
2022/11/14 00:46:29;;;;;;;20.85;14.93;;;;;;;3.65;100.00;101559.31;4994143;28;20459;-77
2022/11/14 00:48:54;;;;;;;21.80;15.48;;;;;;;3.55;100.00;101545.91;4994015;28;20097;-76
2022/11/14 00:51:19;;;;;;;23.90;17.10;;;;;;;3.56;100.00;101556.97;4994013;28;20022;-77
2022/11/14 00:53:44;;;;;;;20.83;15.70;;;;;;;3.37;100.00;101539.50;4993968;28;20061;-79
2022/11/14 00:56:10;;;;;;;21.40;15.80;;;;;;;3.36;100.00;101548.03;4976419;28;20466;-77
2022/11/14 00:58:35;;;;;;;21.10;15.25;;;;;;;3.24;100.00;101544.88;4994027;28;20030;-80
2022/11/14 01:01:00;;;;;;;22.20;15.88;;;;;;;3.21;100.00;101550.06;4993852;28;20064;-77
2022/11/14 01:03:26;;;;;;;21.52;15.13;;;;;;;3.11;100.00;101542.59;4993941;28;20084;-77
2022/11/14 01:05:51;;;;;;;20.75;15.30;;;;;;;3.02;100.00;101540.22;4993245;28;20045;-77
2022/11/14 01:08:18;;;;;;;20.52;15.63;;;;;;;2.87;100.00;101522.69;4993568;28;20022;-77
2022/11/14 01:10:46;;;;;;;21.23;16.10;;;;;;;2.85;100.00;101530.38;4993518;28;20077;-77
2022/11/14 01:13:12;;;;;;;21.33;15.27;;;;;;;2.79;100.00;101506.69;4993591;28;20125;-78
2022/11/14 01:15:45;;;;;;;21.17;15.48;;;;;;;2.86;100.00;101528.66;4993844;28;20422;-78
2022/11/14 01:18:14;;;;;;;23.83;16.35;;;;;;;2.86;100.00;101526.97;4993912;28;20026;-78
2022/11/14 01:20:41;;;;;;;22.45;15.90;;;;;;;2.79;100.00;101516.91;4993438;28;20537;-78
2022/11/14 01:23:08;;;;;;;23.17;16.52;;;;;;;2.81;100.00;101504.94;4993343;28;20019;-77
2022/11/14 01:25:35;;;;;;;22.30;15.43;;;;;;;2.81;100.00;101521.09;4993255;28;20062;-78
2022/11/14 01:28:01;;;;;;;19.17;14.98;;;;;;;2.67;100.00;101489.94;4993758;28;20050;-76
2022/11/14 01:30:26;;;;;;;20.38;15.52;;;;;;;2.74;100.00;101504.22;4993575;28;20517;-77
2022/11/14 01:32:51;;;;;;;21.83;15.82;;;;;;;2.64;100.00;101491.69;4993701;28;20470;-79
2022/11/14 01:35:17;;;;;;;20.95;16.38;;;;;;;2.56;100.00;101466.38;4993463;28;20026;-79
2022/11/14 01:37:42;;;;;;;24.42;16.23;;;;;;;2.64;100.00;101469.56;4993577;28;20022;-79
2022/11/14 01:40:08;;;;;;;22.42;16.23;;;;;;;2.71;100.00;101465.19;4993235;28;20026;-76
2022/11/14 01:42:33;;;;;;;23.67;16.80;;;;;;;2.88;100.00;101468.25;4993681;28;20497;-77
2022/11/14 01:44:59;;;;;;;22.35;16.27;;;;;;;2.64;100.00;101422.84;4993413;28;20045;-76
2022/11/14 01:47:32;;;;;;;24.48;17.15;;;;;;;2.73;100.00;101430.31;4975935;28;20513;-79
2022/11/14 01:50:01;;;;;;;22.45;16.70;;;;;;;2.94;100.00;101464.72;4993496;28;20450;-79
2022/11/14 01:52:33;;;;;;;22.17;16.15;;;;;;;3.01;100.00;101456.06;4993419;28;20022;-79
2022/11/14 01:55:02;;;;;;;23.65;16.65;;;;;;;3.04;100.00;101464.47;4992870;28;20026;-79
2022/11/14 01:57:36;;;;;;;22.27;16.60;;;;;;;3.02;100.00;101456.03;4993336;28;20039;-79
2022/11/14 02:00:06;;;;;;;23.20;15.50;;;;;;;3.11;100.00;101470.31;4993285;28;20026;-77
2022/11/14 02:02:31;;;;;;;22.63;16.50;;;;;;;2.93;100.00;101434.97;4993296;28;20026;-77
2022/11/14 02:05:06;;;;;;;24.17;16.48;;;;;;;2.91;100.00;101442.66;4993340;28;20328;-77
2022/11/14 02:07:35;;;;;;;22.38;16.33;;;;;;;3.00;100.00;101465.44;4993273;28;20022;-76
2022/11/14 02:10:05;;;;;;;24.77;16.73;;;;;;;3.02;100.00;101470.50;4993010;28;20096;-78
2022/11/14 02:12:31;;;;;;;25.70;16.17;;;;;;;3.03;100.00;101456.88;4992991;28;20137;-77
2022/11/14 02:14:58;;;;;;;23.83;17.20;;;;;;;2.75;100.00;101420.91;4993225;28;20022;-79
2022/11/14 02:17:24;;;;;;;24.20;16.30;;;;;;;2.90;100.00;101463.13;4993774;28;20048;-78
2022/11/14 02:19:59;;;;;;;22.08;15.77;;;;;;;2.57;100.00;101412.78;4996834;28;20069;-78
2022/11/14 02:22:24;;;;;;;24.38;16.92;;;;;;;2.60;100.00;101427.16;4996476;28;20026;-78
2022/11/14 02:24:49;;;;;;;24.38;17.05;;;;;;;2.59;100.00;101417.84;4979149;28;20034;-77
2022/11/14 02:27:15;;;;;;;24.20;17.05;;;;;;;2.53;100.00;101426.44;4979163;28;20027;-77
2022/11/14 02:29:41;;;;;;;22.63;16.27;;;;;;;2.55;100.00;101440.00;4996516;28;20470;-79
2022/11/14 02:32:06;;;;;;;23.13;15.70;;;;;;;2.49;100.00;101439.31;4996497;28;20023;-78
2022/11/14 02:34:32;;;;;;;21.58;16.00;;;;;;;2.23;100.00;101406.66;4996440;28;20053;-78
2022/11/14 02:36:57;;;;;;;25.33;17.52;;;;;;;2.37;100.00;101448.03;4996244;28;20474;-78
2022/11/14 02:39:23;;;;;;;23.77;16.75;;;;;;;2.29;100.00;101452.44;4996139;28;20037;-78
2022/11/14 02:41:49;;;;;;;24.65;16.75;;;;;;;2.11;100.00;101434.94;4996485;28;20035;-77
2022/11/14 02:44:15;;;;;;;27.27;17.55;;;;;;;2.22;100.00;101461.88;4996323;28;20034;-78
2022/11/14 02:46:40;;;;;;;26.02;18.35;;;;;;;2.06;100.00;101439.25;4996271;28;20037;-78
2022/11/14 02:49:05;;;;;;;26.75;17.70;;;;;;;2.14;100.00;101450.16;4996310;28;20112;-78
2022/11/14 02:51:31;;;;;;;27.63;19.23;;;;;;;1.87;100.00;101406.50;4996028;28;20153;-79
2022/11/14 02:53:56;;;;;;;25.65;17.80;;;;;;;1.94;100.00;101428.41;4996053;28;20080;-78
2022/11/14 02:56:21;;;;;;;27.33;19.02;;;;;;;1.87;100.00;101433.63;4996060;28;20026;-78
2022/11/14 02:58:47;;;;;;;24.98;19.45;;;;;;;1.83;100.00;101437.97;4996204;28;20504;-78
2022/11/14 03:01:12;;;;;;;24.95;18.20;;;;;;;1.54;100.00;101396.88;4996014;28;20030;-79
2022/11/14 03:03:37;;;;;;;27.85;19.45;;;;;;;1.73;100.00;101439.81;4995962;28;20022;-78
2022/11/14 03:06:03;;;;;;;27.17;18.65;;;;;;;1.76;100.00;101436.38;4995816;28;20485;-76
2022/11/14 03:08:29;;;;;;;26.00;18.65;;;;;;;1.65;100.00;101434.00;4978457;28;20042;-78
2022/11/14 03:11:09;;;;;;;27.45;19.20;;;;;;;1.61;100.00;101422.22;4995705;28;20039;-79
2022/11/14 03:13:35;;;;;;;26.73;19.60;;;;;;;1.62;100.00;101426.44;4995901;28;20469;-79
2022/11/14 03:16:08;;;;;;;26.52;18.25;;;;;;;1.59;100.00;101428.19;4995941;28;20085;-78
2022/11/14 03:18:34;;;;;;;25.10;18.42;;;;;;;1.40;100.00;101400.50;4995444;28;20026;-79
2022/11/14 03:21:14;;;;;;;26.00;17.85;;;;;;;1.47;100.00;101421.56;4995553;28;20030;-78
2022/11/14 03:23:40;;;;;;;25.80;18.10;;;;;;;1.43;100.00;101417.41;4995583;28;20027;-79
2022/11/14 03:26:08;;;;;;;27.73;19.10;;;;;;;1.43;100.00;101420.78;4995627;28;20078;-78
2022/11/14 03:28:34;;;;;;;23.48;17.63;;;;;;;1.32;100.00;101425.22;4995226;28;20089;-78
2022/11/14 03:30:59;;;;;;;26.95;18.63;;;;;;;1.32;100.00;101425.22;4994975;28;20467;-78
2022/11/14 03:33:24;;;;;;;27.08;18.90;;;;;;;1.13;100.00;101389.03;4995364;28;20141;-78
2022/11/14 03:35:50;;;;;;;28.30;19.23;;;;;;;1.07;100.00;101390.81;4995263;28;20675;-78
2022/11/14 03:38:16;;;;;;;26.77;18.08;;;;;;;1.21;100.00;101409.28;4995533;28;20164;-78
2022/11/14 03:40:41;;;;;;;28.23;20.23;;;;;;;1.28;100.00;101403.22;4995009;28;20037;-78
2022/11/14 03:43:07;;;;;;;28.98;19.52;;;;;;;1.18;100.00;101390.66;4995363;28;20030;-78
2022/11/14 03:45:32;;;;;;;30.23;20.65;;;;;;;1.28;100.00;101400.69;4995337;28;20022;-78
2022/11/14 03:47:57;;;;;;;28.13;19.90;;;;;;;1.00;100.00;101348.56;4995040;28;20097;-78
2022/11/14 03:50:23;;;;;;;30.50;19.92;;;;;;;1.29;100.00;101402.38;4995095;28;20037;-78
2022/11/14 03:52:49;;;;;;;29.45;20.40;;;;;;;1.30;100.00;101405.75;4977440;28;20054;-78
2022/11/14 03:55:14;;;;;;;29.80;19.33;;;;;;;1.28;100.00;101408.31;4995186;28;20030;-78
2022/11/14 03:57:39;;;;;;;27.70;18.75;;;;;;;1.19;100.00;101411.00;4994688;28;20026;-78
2022/11/14 04:00:05;;;;;;;26.58;19.02;;;;;;;1.13;100.00;101409.38;4994830;28;20030;-78
2022/11/14 04:02:32;;;;;;;26.80;18.63;;;;;;;1.07;100.00;101413.69;4994850;28;20073;-78
2022/11/14 04:04:57;;;;;;;28.98;19.33;;;;;;;1.07;100.00;101403.53;4994851;28;20493;-79
2022/11/14 04:07:22;;;;;;;27.92;19.13;;;;;;;1.05;100.00;101393.38;4994586;28;20026;-79
2022/11/14 04:09:48;;;;;;;28.60;20.20;;;;;;;1.08;100.00;101392.50;4994690;28;20026;-79
2022/11/14 04:12:13;;;;;;;30.23;20.67;;;;;;;1.04;100.00;101389.16;4994282;28;20046;-79
2022/11/14 04:14:38;;;;;;;32.03;20.73;;;;;;;1.06;100.00;101392.53;4994585;28;20490;-79
2022/11/14 04:17:04;;;;;;;29.95;19.88;;;;;;;1.05;100.00;101387.47;4994651;28;20466;-79
2022/11/14 04:19:29;;;;;;;35.90;23.60;;;;;;;1.11;100.00;101382.28;4994426;28;20072;-79
2022/11/14 04:21:54;;;;;;;35.28;23.05;;;;;;;1.12;100.00;101372.09;4994327;28;20026;-79
2022/11/14 04:24:19;;;;;;;33.30;23.00;;;;;;;1.13;100.00;101380.56;4994496;28;20113;-79
2022/11/14 04:26:45;;;;;;;35.17;22.13;;;;;;;1.11;100.00;101372.13;4994322;28;20030;-78
2022/11/14 04:29:10;;;;;;;34.88;21.95;;;;;;;1.11;100.00;101370.41;4994257;28;20030;-79
2022/11/14 04:31:35;;;;;;;35.90;23.08;;;;;;;1.08;100.00;101372.16;4994292;28;20034;-79
2022/11/14 04:34:01;;;;;;;33.50;22.77;;;;;;;1.02;100.00;101364.63;4993644;28;20093;-79
2022/11/14 04:36:26;;;;;;;34.22;22.23;;;;;;;1.03;100.00;101367.13;5013901;28;20033;-79
2022/11/14 04:38:51;;;;;;;35.88;23.23;;;;;;;0.77;100.00;101331.91;5013581;28;20044;-79
2022/11/14 04:41:17;;;;;;;35.75;21.73;;;;;;;0.97;100.00;101358.75;5013637;28;20026;-79
2022/11/14 04:43:42;;;;;;;36.22;22.30;;;;;;;0.93;100.00;101354.59;5013307;28;20021;-79
2022/11/14 04:46:07;;;;;;;33.80;21.40;;;;;;;0.89;100.00;101355.50;5013576;28;20030;-79
2022/11/14 04:48:33;;;;;;;35.75;21.85;;;;;;;0.74;100.00;101331.97;5013770;28;20033;-79
2022/11/14 04:50:58;;;;;;;32.83;21.67;;;;;;;0.87;100.00;101365.69;5013650;28;20113;-79
2022/11/14 04:53:23;;;;;;;31.50;22.10;;;;;;;0.72;100.00;101353.19;5013525;28;20037;-79
2022/11/14 04:55:48;;;;;;;31.77;21.60;;;;;;;0.74;100.00;101359.09;5013525;28;20014;-79
2022/11/14 04:58:14;;;;;;;30.13;20.52;;;;;;;0.73;100.00;101360.78;5013299;28;20026;-80
2022/11/14 05:00:39;;;;;;;34.72;22.25;;;;;;;0.67;100.00;101350.69;5013336;28;20164;-80
2022/11/14 05:03:04;;;;;;;38.78;23.83;;;;;;;0.84;100.00;101353.84;5013348;28;20030;-79
2022/11/14 05:05:31;;;;;;;37.05;23.02;;;;;;;0.65;100.00;101323.63;5013380;28;20425;-79
2022/11/14 05:07:56;;;;;;;35.05;22.38;;;;;;;0.78;100.00;101351.38;5013426;28;20405;-79
2022/11/14 05:10:22;;;;;;;38.85;24.02;;;;;;;0.86;100.00;101356.38;5013142;28;20038;-80
2022/11/14 05:12:47;;;;;;;41.30;24.45;;;;;;;0.62;100.00;101316.91;5012874;28;20045;-80
2022/11/14 05:15:12;;;;;;;39.50;25.80;;;;;;;0.95;100.00;101350.31;5013381;28;20113;-79
2022/11/14 05:17:37;;;;;;;41.95;24.65;;;;;;;0.97;100.00;101348.59;5013323;28;20113;-79
2022/11/14 05:20:03;;;;;;;38.00;23.88;;;;;;;0.86;100.00;101336.88;5013147;28;20378;-79
2022/11/14 05:22:28;;;;;;;39.10;24.75;;;;;;;0.79;100.00;101327.69;5013258;28;20149;-79
2022/11/14 05:24:54;;;;;;;37.65;23.17;;;;;;;0.83;100.00;101336.94;5013081;28;20022;-79
2022/11/14 05:27:19;;;;;;;35.38;22.90;;;;;;;0.73;100.00;101314.22;4995220;28;20137;-79
2022/11/14 05:29:44;;;;;;;37.08;23.33;;;;;;;0.83;100.00;101334.38;5013003;28;20049;-80
2022/11/14 05:32:10;;;;;;;37.00;22.65;;;;;;;0.83;100.00;101336.09;4995361;28;20447;-80
2022/11/14 05:34:35;;;;;;;37.50;23.60;;;;;;;0.67;100.00;101304.94;5013014;28;20030;-79
2022/11/14 05:37:02;;;;;;;33.63;22.90;;;;;;;0.72;100.00;101317.63;5013029;28;20029;-79
2022/11/14 05:39:28;;;;;;;33.95;22.60;;;;;;;0.75;100.00;101315.84;5012993;28;20057;-80
2022/11/14 05:41:53;;;;;;;38.72;24.65;;;;;;;0.50;100.00;101274.72;5012833;28;20061;-79
2022/11/14 05:44:18;;;;;;;34.40;22.83;;;;;;;0.74;100.00;101316.72;5012791;28;20033;-78
2022/11/14 05:46:43;;;;;;;37.13;22.85;;;;;;;0.62;100.00;101295.72;5013178;28;20449;-78
2022/11/14 05:49:09;;;;;;;38.80;23.60;;;;;;;0.75;100.00;101315.00;5012940;28;20034;-78
2022/11/14 05:51:34;;;;;;;35.10;22.38;;;;;;;0.72;100.00;101320.16;5012896;28;20034;-78
2022/11/14 05:53:59;;;;;;;35.72;22.85;;;;;;;0.61;100.00;101291.50;5016003;28;20034;-78
2022/11/14 05:56:25;;;;;;;35.63;23.00;;;;;;;0.74;100.00;101314.19;5016610;28;20129;-78
2022/11/14 05:58:50;;;;;;;36.95;23.10;;;;;;;0.71;100.00;101313.41;5016633;28;20021;-79
2022/11/14 06:01:18;;;;;;;34.70;21.55;;;;;;;0.66;100.00;101307.53;5016785;28;20076;-79
2022/11/14 06:03:45;;;;;;;37.00;22.42;;;;;;;0.59;100.00;101309.34;5016971;28;20030;-79
2022/11/14 06:06:13;;;;;;;33.85;22.00;;;;;;;0.56;100.00;101317.81;5016746;28;20022;-79
2022/11/14 06:08:39;;;;;;;37.55;22.88;;;;;;;0.45;100.00;101295.97;5016431;28;20026;-79
2022/11/14 06:11:08;;;;;;;33.00;21.17;;;;;;;0.50;100.00;101305.22;5016051;28;20104;-79
2022/11/14 06:13:34;;;;;;;35.88;21.85;;;;;;;0.55;100.00;101313.59;5016253;28;20087;-78
2022/11/14 06:16:01;;;;;;;34.03;22.83;;;;;;;0.39;100.00;101298.56;5016344;28;20034;-79
2022/11/14 06:18:27;;;;;;;33.83;22.20;;;;;;;0.48;100.00;101312.00;5016431;28;20046;-79
2022/11/14 06:20:53;;;;;;;35.20;20.20;;;;;;;0.36;100.00;101303.72;5016316;28;20038;-79
2022/11/14 06:23:18;;;;;;;33.72;20.90;;;;;;;0.41;100.00;101324.81;5016243;28;20018;-78
2022/11/14 06:25:43;;;;;;;35.10;21.38;;;;;;;0.23;100.00;101296.25;5016201;28;20551;-78
2022/11/14 06:28:09;;;;;;;33.45;21.30;;;;;;;0.31;100.00;101318.19;5015988;28;20018;-79
2022/11/14 06:30:34;;;;;;;38.22;21.40;;;;;;;0.24;100.00;101315.72;5015883;28;20164;-78
2022/11/14 06:32:59;;;;;;;33.25;20.77;;;;;;;0.16;100.00;101303.97;5016336;28;20026;-79
2022/11/14 06:35:26;;;;;;;32.55;21.77;;;;;;;0.30;100.00;101317.34;5015991;28;20073;-79
2022/11/14 06:37:51;;;;;;;33.58;20.90;;;;;;;0.27;100.00;101319.91;5016118;28;20083;-79
2022/11/14 06:40:16;;;;;;;32.67;21.90;;;;;;;0.25;100.00;101314.00;5015920;28;20112;-79
2022/11/14 06:42:42;;;;;;;32.58;21.85;;;;;;;0.21;100.00;101318.28;5015872;28;20033;-79
2022/11/14 06:45:07;;;;;;;33.92;22.92;;;;;;;0.20;100.00;101316.63;5015869;28;20539;-78
2022/11/14 06:47:33;;;;;;;31.55;21.75;;;;;;;0.20;100.00;101313.25;5016079;28;20022;-79
2022/11/14 06:49:58;;;;;;;36.63;21.70;;;;;;;0.19;100.00;101317.44;5015501;28;20026;-79
2022/11/14 06:52:25;;;;;;;33.30;21.40;;;;;;;0.05;100.00;101298.19;5015869;28;20076;-79
2022/11/14 06:54:50;;;;;;;35.40;22.00;;;;;;;0.18;100.00;101322.56;5015695;28;20029;-79
2022/11/14 06:57:16;;;;;;;35.28;21.48;;;;;;;0.18;100.00;101320.00;5015531;28;20421;-79
2022/11/14 06:59:41;;;;;;;32.67;20.48;;;;;;;0.14;100.00;101326.84;5015172;28;20112;-80
2022/11/14 07:02:10;;;;;;;33.58;20.90;;;;;;;0.11;100.00;101329.44;5015771;28;20061;-79
2022/11/14 07:04:36;;;;;;;31.63;20.17;;;;;;;0.11;100.00;101334.50;5014084;28;20056;-80
2022/11/14 07:07:01;;;;;;;34.05;20.88;;;;;;;-0.06;100.00;101309.31;5015703;28;20412;-79
2022/11/14 07:09:26;;;;;;;33.92;21.27;;;;;;;0.09;100.00;101328.56;5015332;28;20018;-79
2022/11/14 07:11:52;;;;;;;33.58;20.83;;;;;;;0.11;100.00;101326.88;4994290;28;20498;-80
2022/11/14 07:14:17;;;;;;;33.40;22.13;;;;;;;-0.19;100.00;101271.41;4995361;28;20463;-79
2022/11/14 07:16:42;;;;;;;33.95;21.90;;;;;;;0.20;100.00;101329.31;4995979;28;20109;-80
2022/11/14 07:19:08;;;;;;;34.15;21.88;;;;;;;0.02;100.00;101296.53;4995670;28;20027;-80
2022/11/14 07:21:34;;;;;;;37.20;22.65;;;;;;;0.16;100.00;101309.88;4994243;28;20442;-79
2022/11/14 07:23:59;;;;;;;34.88;23.30;;;;;;;0.34;100.00;101323.22;4995835;28;20033;-80
2022/11/14 07:26:25;;;;;;;35.55;21.20;;;;;;;0.42;100.00;101327.34;4995356;28;20110;-80
2022/11/14 07:28:50;;;;;;;37.35;22.17;;;;;;;0.26;100.00;101305.53;4995386;28;20034;-80
2022/11/14 07:31:17;;;;;;;41.05;22.50;;;;;;;0.42;100.00;101334.97;4995074;28;20038;-80
2022/11/14 07:33:43;;;;;;;35.58;22.35;;;;;;;0.40;100.00;101329.06;4995385;28;20027;-79
2022/11/14 07:36:10;;;;;;;36.13;22.63;;;;;;;0.46;100.00;101328.13;4995558;28;20426;-79
2022/11/14 07:38:36;;;;;;;38.15;24.98;;;;;;;0.52;100.00;101320.44;4995401;28;20104;-79
2022/11/14 07:41:05;;;;;;;36.55;23.50;;;;;;;0.46;100.00;101307.81;4995244;28;20030;-80
2022/11/14 07:43:31;;;;;;;39.33;25.27;;;;;;;0.52;100.00;101303.50;4993967;28;20034;-80
2022/11/14 07:46:08;;;;;;;37.72;25.60;;;;;;;0.53;100.00;101295.00;4994800;28;20030;-79
2022/11/14 07:48:34;;;;;;;39.97;22.58;;;;;;;0.61;100.00;101287.28;4993841;28;20517;-79
2022/11/14 07:51:00;;;;;;;36.20;23.95;;;;;;;0.64;100.00;101277.06;4995198;28;20105;-79
2022/11/14 07:53:27;;;;;;;34.20;22.27;;;;;;;0.94;100.00;101310.50;4995103;28;20437;-79
2022/11/14 07:55:52;;;;;;;33.83;23.02;;;;;;;0.98;100.00;101309.56;4993760;28;20117;-79
2022/11/14 07:58:18;;;;;;;37.47;23.95;;;;;;;0.94;100.00;101296.09;4994915;28;20114;-79
2022/11/14 08:00:44;;;;;;;36.08;24.10;;;;;;;1.10;100.00;101310.25;4994735;28;20093;-77
2022/11/14 08:03:09;;;;;;;34.83;23.85;;;;;;;1.17;100.00;101308.41;4994955;28;20023;-79
2022/11/14 08:05:35;;;;;;;39.85;24.77;;;;;;;1.24;100.00;101307.47;4994739;28;20544;-77
2022/11/14 08:08:01;;;;;;;38.65;24.65;;;;;;;1.08;100.00;101268.75;4994873;28;20035;-79
2022/11/14 08:10:26;;;;;;;34.60;24.45;;;;;;;1.35;100.00;101303.03;4994714;28;20053;-79
2022/11/14 08:12:59;;;;;;;37.83;23.98;;;;;;;1.42;100.00;101302.06;5005106;28;20069;-76
2022/11/14 08:15:24;;;;;;;36.33;24.42;;;;;;;1.40;100.00;101275.81;5013703;28;20481;-79
2022/11/14 08:17:50;;;;;;;37.20;23.50;;;;;;;1.55;100.00;101289.94;4996015;28;20049;-79
2022/11/14 08:20:15;;;;;;;33.85;23.38;;;;;;;1.64;100.00;101289.78;5014168;28;20552;-79
2022/11/14 08:22:40;;;;;;;39.08;24.48;;;;;;;1.71;100.00;101280.31;5014024;28;20117;-77
2022/11/14 08:25:06;;;;;;;37.95;24.30;;;;;;;1.55;100.00;101249.22;5014290;28;20062;-77
2022/11/14 08:27:31;;;;;;;34.58;22.85;;;;;;;1.84;100.00;101283.47;5014061;28;20029;-79
2022/11/14 08:29:57;;;;;;;36.10;24.10;;;;;;;1.91;100.00;101275.69;5013788;28;20117;-79
2022/11/14 08:32:22;;;;;;;33.08;22.83;;;;;;;2.00;100.00;101284.84;5013803;28;20029;-80
2022/11/14 08:34:47;;;;;;;35.00;23.05;;;;;;;2.07;100.00;101283.84;5013846;28;20029;-79
2022/11/14 08:37:13;;;;;;;32.47;22.70;;;;;;;2.16;100.00;101285.34;5014003;28;20034;-78
2022/11/14 08:39:38;;;;;;;37.03;22.67;;;;;;;2.23;100.00;101279.25;5013676;28;20076;-79
2022/11/14 08:42:04;;;;;;;36.83;23.77;;;;;;;2.29;100.00;101274.88;5013700;28;20030;-79
2022/11/14 08:44:29;;;;;;;31.80;22.35;;;;;;;2.23;100.00;101253.78;5013612;28;20557;-78
2022/11/14 08:46:54;;;;;;;41.15;24.70;;;;;;;2.28;100.00;101242.63;5013678;28;20533;-79
2022/11/14 08:49:19;;;;;;;32.75;23.63;;;;;;;2.49;100.00;101268.50;4995934;28;20030;-79
2022/11/14 08:51:45;;;;;;;31.10;22.98;;;;;;;2.57;100.00;101264.09;5012617;28;20221;-79
2022/11/14 08:54:10;;;;;;;32.97;23.75;;;;;;;2.26;100.00;101208.72;5014017;28;20088;-78
2022/11/14 08:56:36;;;;;;;38.25;23.42;;;;;;;2.44;100.00;101226.97;5013723;28;20466;-78
2022/11/14 08:59:04;;;;;;;34.78;24.00;;;;;;;2.70;100.00;101260.38;5013577;28;20481;-77
2022/11/14 09:01:31;;;;;;;33.90;23.73;;;;;;;2.55;100.00;101222.47;5013197;28;20394;-78
2022/11/14 09:03:57;;;;;;;32.95;23.75;;;;;;;2.88;100.00;101254.81;5013498;28;20036;-78
2022/11/14 09:06:22;;;;;;;37.17;23.67;;;;;;;2.97;100.00;101263.97;5013532;28;20021;-79
2022/11/14 09:08:48;;;;;;;35.75;23.40;;;;;;;3.03;100.00;101263.81;4994898;28;20037;-76
2022/11/14 09:11:13;;;;;;;32.53;22.60;;;;;;;2.76;100.00;101210.94;5013456;28;20026;-77
2022/11/14 09:13:38;;;;;;;32.95;22.60;;;;;;;3.02;100.00;101236.63;5013171;28;20074;-78
2022/11/14 09:16:04;;;;;;;29.38;22.13;;;;;;;3.14;100.00;101232.91;5013189;28;20037;-79
2022/11/14 09:18:30;;;;;;;33.65;23.45;;;;;;;3.29;100.00;101254.66;5013068;28;20088;-80
2022/11/14 09:21:00;;;;;;;33.33;22.70;;;;;;;3.07;100.00;101196.53;5013277;28;20025;-80
2022/11/14 09:23:25;;;;;;;32.50;22.25;;;;;;;3.29;100.00;101216.38;5013115;28;20026;-79
2022/11/14 09:25:51;;;;;;;30.13;21.92;;;;;;;3.36;100.00;101225.56;5013264;28;20362;-80
2022/11/14 09:28:16;;;;;;;34.28;23.27;;;;;;;3.51;100.00;101239.59;5012364;28;20080;-79
2022/11/14 09:30:41;;;;;;;31.48;23.25;;;;;;;3.53;100.00;101243.78;5012958;28;20034;-79
2022/11/14 09:33:06;;;;;;;32.60;23.08;;;;;;;3.59;100.00;101237.69;5013147;28;20373;-79
2022/11/14 09:35:32;;;;;;;34.45;24.30;;;;;;;3.51;100.00;101221.72;4995202;28;20494;-78
2022/11/14 09:38:09;;;;;;;33.13;23.48;;;;;;;3.45;100.00;101194.66;5012951;28;20060;-79
2022/11/14 09:40:56;;;;;;;35.58;24.70;;;;;;;3.78;100.00;101226.06;5013028;28;20401;-79
2022/11/14 09:43:24;;;;;;;33.70;22.75;;;;;;;3.90;100.00;101235.94;5012856;28;20029;-79
2022/11/14 09:45:52;;;;;;;32.55;23.10;;;;;;;3.86;100.00;101202.88;5013066;28;20032;-80
2022/11/14 09:48:21;;;;;;;35.83;23.42;;;;;;;4.02;100.00;101211.75;5012883;28;20026;-82
2022/11/14 09:51:20;;;;;;;37.58;23.85;;;;;;;4.08;100.00;101224.34;5012772;28;20097;-82
2022/11/14 09:53:52;;;;;;;35.28;22.77;;;;;;;3.97;100.00;101199.13;4933443;29;20046;-81
2022/11/14 09:56:25;;;;;;;36.28;23.83;;;;;;;4.15;100.00;101233.50;4933419;29;20036;-80
2022/11/14 09:58:52;;;;;;;40.08;25.05;;;;;;;4.20;100.00;101238.47;4933636;29;20063;-80
2022/11/14 10:01:26;;;;;;;37.80;24.30;;;;;;;4.29;100.00;101235.66;4927015;29;20044;-79
2022/11/14 10:04:13;;;;;;;37.47;24.95;;;;;;;4.38;100.00;101237.09;4913839;29;20051;-77
2022/11/14 10:06:46;;;;;;;39.13;25.55;;;;;;;4.28;100.00;101204.13;4933349;29;20038;-81
2022/11/14 10:09:38;;;;;;;33.53;23.63;;;;;;;4.50;100.00;101234.13;4933399;29;20040;-79
2022/11/14 10:12:16;;;;;;;34.95;24.85;;;;;;;4.57;100.00;101231.34;4933124;29;20060;-80
2022/11/14 10:14:47;;;;;;;36.97;25.77;;;;;;;4.66;100.00;101224.28;4933297;29;20440;-82
2022/11/14 10:17:39;;;;;;;36.33;24.88;;;;;;;4.71;100.00;101228.34;4933143;29;20391;-82
2022/11/14 10:20:17;;;;;;;36.45;24.90;;;;;;;4.78;100.00;101229.81;4895163;29;20105;-82
2022/11/14 10:23:00;;;;;;;39.53;26.23;;;;;;;4.82;100.00;101226.28;4895303;29;20499;-81
2022/11/14 10:26:06;;;;;;;41.22;26.85;;;;;;;4.86;100.00;101227.03;4895105;29;20068;-80
2022/11/14 10:28:55;;;;;;;35.88;25.40;;;;;;;4.85;100.00;101205.72;4815161;29;20037;-82
2022/11/14 10:31:52;;;;;;;40.50;25.98;;;;;;;5.02;100.00;101225.63;4876764;29;20037;-81
2022/11/14 10:34:47;;;;;;;38.50;25.95;;;;;;;5.01;100.00;101205.19;4876084;29;20040;-81
2022/11/14 10:37:34;;;;;;;37.65;26.45;;;;;;;5.17;100.00;101217.41;5009388;23;20045;-80
2022/11/14 10:40:22;;;;;;;40.80;26.77;;;;;;;5.01;100.00;101182.16;5017325;28;20516;-80
2022/11/14 10:42:56;;;;;;;38.85;27.55;;;;;;;5.15;100.00;101188.47;5035946;28;20029;-81
2022/11/14 10:45:30;;;;;;;37.88;25.75;;;;;;;5.05;100.00;101163.25;5035641;28;20442;-81
2022/11/14 10:48:09;;;;;;;41.55;27.25;;;;;;;5.36;100.00;101204.81;5035260;28;20037;-82
2022/11/14 10:50:57;;;;;;;43.47;28.95;;;;;;;5.40;100.00;101211.50;5035447;28;20543;-81
2022/11/14 10:53:42;;;;;;;40.03;27.20;;;;;;;5.07;100.00;101138.44;5035406;28;20377;-80
2022/11/14 10:56:11;;;;;;;43.13;28.83;;;;;;;5.54;100.00;101203.34;5017906;28;20025;-81
2022/11/14 10:58:37;;;;;;;45.05;28.73;;;;;;;5.51;100.00;101184.69;5035534;28;20105;-81
2022/11/14 11:01:30;;;;;;;40.70;27.65;;;;;;;5.43;100.00;101152.50;5035368;28;20102;-82
2022/11/14 11:03:55;;;;;;;42.40;28.10;;;;;;;5.70;100.00;101194.22;5035265;28;20033;-80
2022/11/14 11:06:25;;;;;;;44.35;28.25;;;;;;;5.75;100.00;101182.03;5035547;28;20477;-80
2022/11/14 11:11:40;;;;;;;43.17;28.70;;;;;;;5.73;100.00;101167.63;5035179;28;20044;-80
2022/11/14 11:14:16;;;;;;;44.33;28.02;;;;;;;5.86;100.00;101179.06;5035046;28;20034;-80